createdAt,value
2023-05-12T00:00:01.557Z,526.94
2023-05-12T00:00:12.611Z,526.95
2023-05-12T00:00:24.555Z,526.96
2023-05-12T00:00:35.557Z,527.00
2023-05-12T00:00:46.535Z,527.01
2023-05-12T00:00:57.616Z,527.03
2023-05-12T00:01:09.560Z,527.06
2023-05-12T00:01:20.524Z,527.10
2023-05-12T00:01:31.616Z,527.12
2023-05-12T00:01:43.567Z,527.15
2023-05-12T00:01:54.529Z,527.19
2023-05-12T00:02:05.614Z,527.21
2023-05-12T00:02:17.601Z,527.23
2023-05-12T00:02:29.611Z,527.24
2023-05-12T00:02:41.617Z,527.22
2023-05-12T00:02:53.632Z,527.24
2023-05-12T00:03:05.654Z,527.25
2023-05-12T00:03:16.672Z,527.25
2023-05-12T00:03:27.607Z,527.24
2023-05-12T00:03:39.605Z,527.26
2023-05-12T00:03:51.754Z,527.25
2023-05-12T00:04:03.655Z,527.23
2023-05-12T00:04:15.595Z,527.22
2023-05-12T00:04:27.571Z,527.23
2023-05-12T00:04:39.676Z,527.25
2023-05-12T00:04:51.621Z,527.28
2023-05-12T00:05:03.605Z,527.29
2023-05-12T00:05:15.585Z,527.35
2023-05-12T00:05:26.562Z,527.37
2023-05-12T00:05:37.551Z,527.38
2023-05-12T00:05:48.537Z,527.40
2023-05-12T00:05:59.617Z,527.44
2023-05-12T00:06:11.594Z,527.47
2023-05-12T00:06:22.558Z,527.50
2023-05-12T00:06:33.542Z,527.53
2023-05-12T00:06:44.528Z,527.55
2023-05-12T00:06:55.617Z,527.59
2023-05-12T00:07:07.579Z,527.60
2023-05-12T00:07:18.557Z,527.62
2023-05-12T00:07:29.565Z,527.61
2023-05-12T00:07:40.534Z,527.61
2023-05-12T00:07:51.614Z,527.61
2023-05-12T00:08:03.571Z,527.61
2023-05-12T00:08:14.555Z,527.61
2023-05-12T00:08:25.515Z,527.61
2023-05-12T00:08:36.608Z,527.62
2023-05-12T00:08:48.551Z,527.63
2023-05-12T00:08:59.527Z,527.60
2023-05-12T00:09:10.623Z,527.66
2023-05-12T00:09:22.564Z,527.66
2023-05-12T00:09:33.534Z,527.69
2023-05-12T00:09:44.619Z,527.74
2023-05-12T00:09:56.612Z,527.77
2023-05-12T00:10:08.563Z,527.81
2023-05-12T00:10:19.703Z,527.81
2023-05-12T00:10:31.559Z,527.86
2023-05-12T00:10:42.550Z,527.88
2023-05-12T00:10:53.535Z,527.90
2023-05-12T00:11:04.620Z,527.95
2023-05-12T00:11:16.583Z,527.96
2023-05-12T00:11:27.578Z,527.97
2023-05-12T00:11:38.567Z,527.95
2023-05-12T00:11:49.553Z,527.97
2023-05-12T00:12:00.621Z,527.99
2023-05-12T00:12:12.571Z,527.96
2023-05-12T00:12:23.537Z,527.96
2023-05-12T00:12:34.528Z,527.96
2023-05-12T00:12:45.614Z,527.95
2023-05-12T00:12:57.563Z,527.92
2023-05-12T00:13:08.545Z,527.88
2023-05-12T00:13:19.625Z,527.88
2023-05-12T00:13:31.615Z,527.84
2023-05-12T00:13:43.596Z,527.81
2023-05-12T00:13:55.619Z,527.80
2023-05-12T00:14:07.593Z,527.76
2023-05-12T00:14:18.583Z,527.72
2023-05-12T00:14:29.582Z,527.69
2023-05-12T00:14:40.588Z,527.65
2023-05-12T00:14:51.579Z,527.61
2023-05-12T00:15:02.568Z,527.57
2023-05-12T00:15:13.573Z,527.53
2023-05-12T00:15:24.563Z,527.50
2023-05-12T00:15:35.555Z,527.50
2023-05-12T00:15:46.565Z,527.46
2023-05-12T00:15:57.607Z,527.45
2023-05-12T00:16:08.573Z,527.41
2023-05-12T00:16:19.677Z,527.41
2023-05-12T00:16:31.573Z,527.43
2023-05-12T00:16:42.630Z,527.42
2023-05-12T00:16:53.668Z,527.44
2023-05-12T00:17:04.563Z,527.46
2023-05-12T00:17:15.563Z,527.49
2023-05-12T00:17:26.605Z,527.51
2023-05-12T00:17:38.604Z,527.56
2023-05-12T00:17:50.658Z,527.59
2023-05-12T00:18:01.593Z,527.61
2023-05-12T00:18:12.598Z,527.67
2023-05-12T00:18:23.608Z,527.69
2023-05-12T00:18:35.609Z,527.74
2023-05-12T00:18:47.625Z,527.75
2023-05-12T00:18:59.643Z,527.80
2023-05-12T00:19:10.684Z,527.82
2023-05-12T00:19:21.548Z,527.85
2023-05-12T00:19:32.628Z,527.85
2023-05-12T00:19:44.590Z,527.89
2023-05-12T00:19:55.586Z,527.90
2023-05-12T00:20:06.575Z,527.94
2023-05-12T00:20:17.734Z,527.94
2023-05-12T00:20:28.538Z,527.95
2023-05-12T00:20:39.545Z,527.97
2023-05-12T00:20:50.630Z,528.01
2023-05-12T00:21:02.589Z,528.01
2023-05-12T00:21:13.605Z,528.04
2023-05-12T00:21:25.565Z,528.07
2023-05-12T00:21:36.560Z,528.09
2023-05-12T00:21:47.554Z,528.11
2023-05-12T00:21:58.540Z,528.13
2023-05-12T00:22:09.623Z,528.19
2023-05-12T00:22:21.598Z,528.21
2023-05-12T00:22:33.603Z,528.25
2023-05-12T00:22:44.592Z,528.26
2023-05-12T00:22:55.579Z,528.31
2023-05-12T00:23:06.567Z,528.35
2023-05-12T00:23:17.559Z,528.38
2023-05-12T00:23:28.546Z,528.41
2023-05-12T00:23:39.643Z,528.45
2023-05-12T00:23:51.616Z,528.48
2023-05-12T00:24:03.573Z,528.51
2023-05-12T00:24:14.571Z,528.51
2023-05-12T00:24:25.574Z,528.53
2023-05-12T00:24:36.568Z,528.54
2023-05-12T00:24:47.566Z,528.52
2023-05-12T00:24:58.554Z,528.48
2023-05-12T00:25:09.559Z,528.44
2023-05-12T00:25:20.567Z,528.40
2023-05-12T00:25:31.605Z,528.36
2023-05-12T00:25:42.599Z,528.34
2023-05-12T00:25:53.595Z,528.26
2023-05-12T00:26:04.614Z,528.22
2023-05-12T00:26:16.579Z,528.16
2023-05-12T00:26:27.566Z,528.10
2023-05-12T00:26:38.576Z,528.05
2023-05-12T00:26:49.593Z,528.01
2023-05-12T00:27:00.589Z,527.97
2023-05-12T00:27:11.580Z,527.94
2023-05-12T00:27:22.568Z,527.90
2023-05-12T00:27:33.558Z,527.87
2023-05-12T00:27:44.557Z,527.85
2023-05-12T00:27:55.551Z,527.83
2023-05-12T00:28:06.556Z,527.83
2023-05-12T00:28:17.550Z,527.81
2023-05-12T00:28:28.543Z,527.78
2023-05-12T00:28:39.632Z,527.76
2023-05-12T00:28:51.585Z,527.74
2023-05-12T00:29:02.581Z,527.72
2023-05-12T00:29:13.571Z,527.72
2023-05-12T00:29:24.573Z,527.70
2023-05-12T00:29:35.554Z,527.69
2023-05-12T00:29:46.544Z,527.72
2023-05-12T00:29:57.549Z,527.70
2023-05-12T00:30:08.635Z,527.73
2023-05-12T00:30:20.808Z,527.74
2023-05-12T00:30:32.565Z,527.75
2023-05-12T00:30:43.568Z,527.76
2023-05-12T00:30:54.562Z,527.78
2023-05-12T00:31:05.614Z,527.79
2023-05-12T00:31:16.668Z,527.79
2023-05-12T00:31:28.592Z,527.81
2023-05-12T00:31:39.659Z,527.84
2023-05-12T00:31:50.631Z,527.82
2023-05-12T00:32:01.635Z,527.82
2023-05-12T00:32:12.554Z,527.81
2023-05-12T00:32:23.534Z,527.82
2023-05-12T00:32:34.566Z,527.80
2023-05-12T00:32:45.573Z,527.81
2023-05-12T00:32:56.619Z,527.80
2023-05-12T00:33:08.601Z,527.78
2023-05-12T00:33:19.596Z,527.78
2023-05-12T00:33:31.583Z,527.74
2023-05-12T00:33:42.613Z,527.75
2023-05-12T00:33:54.588Z,527.72
2023-05-12T00:34:05.595Z,527.71
2023-05-12T00:34:16.598Z,527.70
2023-05-12T00:34:28.574Z,527.70
2023-05-12T00:34:39.577Z,527.71
2023-05-12T00:34:50.574Z,527.68
2023-05-12T00:35:01.593Z,527.68
2023-05-12T00:35:12.589Z,527.67
2023-05-12T00:35:23.591Z,527.64
2023-05-12T00:35:34.632Z,527.61
2023-05-12T00:35:46.613Z,527.62
2023-05-12T00:35:57.602Z,527.61
2023-05-12T00:36:08.606Z,527.60
2023-05-12T00:36:20.589Z,527.58
2023-05-12T00:36:31.579Z,527.57
2023-05-12T00:36:42.584Z,527.54
2023-05-12T00:36:53.585Z,527.57
2023-05-12T00:37:04.589Z,527.52
2023-05-12T00:37:15.603Z,527.54
2023-05-12T00:37:27.571Z,527.55
2023-05-12T00:37:38.580Z,527.51
2023-05-12T00:37:49.586Z,527.53
2023-05-12T00:38:00.578Z,527.54
2023-05-12T00:38:11.568Z,527.55
2023-05-12T00:38:22.561Z,527.59
2023-05-12T00:38:33.554Z,527.56
2023-05-12T00:38:44.569Z,527.58
2023-05-12T00:38:55.555Z,527.55
2023-05-12T00:39:06.545Z,527.59
2023-05-12T00:39:17.630Z,527.57
2023-05-12T00:39:29.585Z,527.56
2023-05-12T00:39:40.573Z,527.54
2023-05-12T00:39:51.570Z,527.55
2023-05-12T00:40:02.564Z,527.55
2023-05-12T00:40:13.553Z,527.53
2023-05-12T00:40:24.547Z,527.56
2023-05-12T00:40:35.553Z,527.54
2023-05-12T00:40:46.549Z,527.57
2023-05-12T00:40:57.545Z,527.56
2023-05-12T00:41:08.638Z,527.57
2023-05-12T00:41:20.588Z,527.57
2023-05-12T00:41:31.589Z,527.57
2023-05-12T00:41:43.576Z,527.57
2023-05-12T00:41:54.552Z,527.57
2023-05-12T00:42:05.603Z,527.59
2023-05-12T00:42:16.620Z,527.56
2023-05-12T00:42:28.580Z,527.53
2023-05-12T00:42:39.576Z,527.52
2023-05-12T00:42:50.582Z,527.47
2023-05-12T00:43:01.599Z,527.48
2023-05-12T00:43:13.573Z,527.45
2023-05-12T00:43:24.580Z,527.42
2023-05-12T00:43:35.596Z,527.40
2023-05-12T00:43:46.588Z,527.40
2023-05-12T00:43:57.584Z,527.41
2023-05-12T00:44:08.585Z,527.41
2023-05-12T00:44:19.602Z,527.42
2023-05-12T00:44:30.583Z,527.45
2023-05-12T00:44:41.581Z,527.44
2023-05-12T00:44:52.582Z,527.47
2023-05-12T00:45:03.583Z,527.52
2023-05-12T00:45:14.563Z,527.59
2023-05-12T00:45:25.559Z,527.64
2023-05-12T00:45:36.566Z,527.71
2023-05-12T00:45:48.600Z,527.75
2023-05-12T00:45:59.669Z,527.81
2023-05-12T00:46:11.651Z,527.88
2023-05-12T00:46:22.643Z,527.91
2023-05-12T00:46:33.572Z,527.95
2023-05-12T00:46:44.559Z,527.94
2023-05-12T00:46:55.556Z,527.95
2023-05-12T00:47:06.545Z,527.97
2023-05-12T00:47:17.615Z,527.97
2023-05-12T00:47:29.623Z,527.96
2023-05-12T00:47:41.602Z,527.92
2023-05-12T00:47:53.748Z,527.88
2023-05-12T00:48:04.624Z,527.90
2023-05-12T00:48:16.609Z,527.86
2023-05-12T00:48:28.637Z,527.88
2023-05-12T00:48:40.612Z,527.89
2023-05-12T00:48:52.585Z,527.92
2023-05-12T00:49:03.583Z,527.93
2023-05-12T00:49:14.580Z,527.96
2023-05-12T00:49:25.591Z,528.00
2023-05-12T00:49:36.629Z,528.01
2023-05-12T00:49:48.621Z,528.07
2023-05-12T00:50:00.583Z,528.08
2023-05-12T00:50:11.590Z,528.13
2023-05-12T00:50:22.709Z,528.16
2023-05-12T00:50:33.587Z,528.20
2023-05-12T00:50:44.590Z,528.21
2023-05-12T00:50:55.595Z,528.25
2023-05-12T00:51:06.556Z,528.25
2023-05-12T00:51:17.552Z,528.28
2023-05-12T00:51:28.554Z,528.28
2023-05-12T00:51:39.551Z,528.29
2023-05-12T00:51:50.539Z,528.30
2023-05-12T00:52:01.624Z,528.33
2023-05-12T00:52:12.612Z,528.33
2023-05-12T00:52:24.589Z,528.32
2023-05-12T00:52:35.587Z,528.28
2023-05-12T00:52:46.595Z,528.30
2023-05-12T00:52:58.579Z,528.32
2023-05-12T00:53:09.550Z,528.29
2023-05-12T00:53:20.554Z,528.28
2023-05-12T00:53:45.114Z,528.29
2023-05-12T00:53:50.024Z,528.27
2023-05-12T00:53:55.605Z,528.28
2023-05-12T00:54:06.587Z,528.26
2023-05-12T00:54:17.584Z,528.25
2023-05-12T00:54:28.577Z,528.20
2023-05-12T00:54:39.558Z,528.22
2023-05-12T00:54:50.551Z,528.19
2023-05-12T00:55:01.641Z,528.16
2023-05-12T00:55:13.609Z,528.17
2023-05-12T00:55:24.585Z,528.14
2023-05-12T00:55:35.579Z,528.14
2023-05-12T00:55:46.593Z,528.12
2023-05-12T00:55:57.591Z,528.12
2023-05-12T00:56:09.571Z,528.10
2023-05-12T00:56:20.561Z,528.07
2023-05-12T00:56:31.585Z,528.06
2023-05-12T00:56:42.578Z,528.03
2023-05-12T00:56:53.567Z,528.00
2023-05-12T00:57:04.581Z,527.98
2023-05-12T00:57:15.570Z,527.97
2023-05-12T00:57:26.562Z,527.94
2023-05-12T00:57:37.549Z,527.94
2023-05-12T00:57:48.540Z,527.90
2023-05-12T00:57:59.539Z,527.90
2023-05-12T00:58:10.624Z,527.90
2023-05-12T00:58:22.596Z,527.87
2023-05-12T00:58:33.604Z,527.85
2023-05-12T00:58:44.600Z,527.82
2023-05-12T00:58:55.593Z,527.77
2023-05-12T00:59:06.592Z,527.77
2023-05-12T00:59:17.587Z,527.74
2023-05-12T00:59:28.591Z,527.75
2023-05-12T00:59:39.601Z,527.72
2023-05-12T00:59:50.592Z,527.68
2023-05-12T01:00:01.590Z,527.66
2023-05-12T01:00:12.594Z,527.64
2023-05-12T01:00:23.601Z,527.62
2023-05-12T01:00:34.595Z,527.60
2023-05-12T01:00:45.577Z,527.61
2023-05-12T01:00:56.608Z,527.61
2023-05-12T01:01:08.599Z,527.64
2023-05-12T01:01:19.607Z,527.62
2023-05-12T01:01:31.659Z,527.64
2023-05-12T01:01:42.630Z,527.63
2023-05-12T01:01:53.635Z,527.66
2023-05-12T01:02:05.627Z,527.67
2023-05-12T01:02:17.594Z,527.67
2023-05-12T01:02:28.645Z,527.67
2023-05-12T01:02:40.683Z,527.70
2023-05-12T01:02:51.683Z,527.71
2023-05-12T01:03:02.776Z,527.74
2023-05-12T01:03:14.673Z,527.76
2023-05-12T01:03:26.675Z,527.77
2023-05-12T01:03:37.661Z,527.76
2023-05-12T01:03:48.616Z,527.77
2023-05-12T01:03:59.578Z,527.76
2023-05-12T01:04:10.555Z,527.79
2023-05-12T01:04:21.654Z,527.83
2023-05-12T01:04:33.633Z,527.85
2023-05-12T01:04:45.587Z,527.88
2023-05-12T01:04:56.570Z,527.92
2023-05-12T01:05:07.558Z,527.98
2023-05-12T01:05:18.563Z,528.04
2023-05-12T01:05:29.674Z,528.08
2023-05-12T01:05:41.690Z,528.16
2023-05-12T01:05:52.595Z,528.21
2023-05-12T01:06:03.581Z,528.25
2023-05-12T01:06:14.565Z,528.33
2023-05-12T01:06:25.569Z,528.38
2023-05-12T01:06:36.557Z,528.46
2023-05-12T01:06:47.637Z,528.48
2023-05-12T01:06:59.582Z,528.53
2023-05-12T01:07:10.567Z,528.56
2023-05-12T01:07:21.553Z,528.59
2023-05-12T01:07:32.580Z,528.60
2023-05-12T01:07:43.573Z,528.60
2023-05-12T01:07:54.585Z,528.63
2023-05-12T01:08:05.600Z,528.61
2023-05-12T01:08:16.588Z,528.61
2023-05-12T01:08:27.574Z,528.60
2023-05-12T01:08:38.550Z,528.57
2023-05-12T01:08:49.568Z,528.55
2023-05-12T01:09:00.653Z,528.54
2023-05-12T01:09:12.602Z,528.48
2023-05-12T01:09:23.584Z,528.46
2023-05-12T01:09:34.571Z,528.45
2023-05-12T01:09:45.563Z,528.43
2023-05-12T01:09:56.646Z,528.43
2023-05-12T01:10:08.610Z,528.42
2023-05-12T01:10:19.789Z,528.41
2023-05-12T01:10:30.570Z,528.44
2023-05-12T01:10:41.577Z,528.42
2023-05-12T01:10:52.575Z,528.40
2023-05-12T01:11:03.548Z,528.42
2023-05-12T01:11:14.655Z,528.40
2023-05-12T01:11:26.610Z,528.39
2023-05-12T01:11:37.604Z,528.34
2023-05-12T01:11:49.610Z,528.33
2023-05-12T01:12:00.605Z,528.31
2023-05-12T01:12:11.593Z,528.26
2023-05-12T01:12:22.587Z,528.25
2023-05-12T01:12:33.624Z,528.20
2023-05-12T01:12:45.590Z,528.16
2023-05-12T01:12:56.598Z,528.14
2023-05-12T01:13:07.584Z,528.10
2023-05-12T01:13:18.563Z,528.08
2023-05-12T01:13:29.567Z,528.05
2023-05-12T01:13:40.553Z,528.04
2023-05-12T01:13:51.642Z,528.02
2023-05-12T01:14:03.589Z,527.99
2023-05-12T01:14:14.599Z,527.99
2023-05-12T01:14:26.575Z,528.00
2023-05-12T01:14:37.582Z,527.98
2023-05-12T01:14:48.574Z,527.99
2023-05-12T01:14:59.560Z,527.97
2023-05-12T01:15:10.649Z,527.99
2023-05-12T01:15:22.596Z,528.01
2023-05-12T01:15:33.591Z,527.98
2023-05-12T01:15:44.612Z,528.01
2023-05-12T01:15:55.617Z,528.03
2023-05-12T01:16:06.606Z,528.04
2023-05-12T01:16:17.591Z,528.07
2023-05-12T01:16:28.591Z,528.10
2023-05-12T01:16:39.591Z,528.13
2023-05-12T01:16:50.616Z,528.16
2023-05-12T01:17:02.641Z,528.17
2023-05-12T01:17:14.679Z,528.18
2023-05-12T01:17:25.647Z,528.21
2023-05-12T01:17:36.724Z,528.23
2023-05-12T01:17:47.649Z,528.20
2023-05-12T01:17:59.605Z,528.23
2023-05-12T01:18:10.672Z,528.21
2023-05-12T01:18:21.723Z,528.20
2023-05-12T01:18:32.677Z,528.19
2023-05-12T01:18:44.602Z,528.19
2023-05-12T01:18:55.675Z,528.18
2023-05-12T01:19:06.583Z,528.18
2023-05-12T01:19:17.615Z,528.17
2023-05-12T01:19:28.609Z,528.18
2023-05-12T01:19:39.595Z,528.19
2023-05-12T01:19:50.594Z,528.20
2023-05-12T01:20:01.630Z,528.22
2023-05-12T01:20:13.590Z,528.23
2023-05-12T01:20:24.586Z,528.25
2023-05-12T01:20:35.580Z,528.25
2023-05-12T01:20:46.568Z,528.28
2023-05-12T01:20:57.576Z,528.29
2023-05-12T01:21:08.554Z,528.28
2023-05-12T01:21:19.655Z,528.29
2023-05-12T01:21:31.654Z,528.30
2023-05-12T01:21:43.614Z,528.30
2023-05-12T01:21:54.596Z,528.28
2023-05-12T01:22:05.608Z,528.29
2023-05-12T01:22:16.607Z,528.30
2023-05-12T01:22:27.600Z,528.29
2023-05-12T01:22:38.603Z,528.27
2023-05-12T01:22:49.590Z,528.29
2023-05-12T01:23:00.595Z,528.29
2023-05-12T01:23:11.606Z,528.27
2023-05-12T01:23:22.593Z,528.27
2023-05-12T01:23:33.598Z,528.24
2023-05-12T01:23:44.611Z,528.25
2023-05-12T01:23:55.598Z,528.26
2023-05-12T01:24:06.584Z,528.24
2023-05-12T01:24:17.573Z,528.23
2023-05-12T01:24:28.565Z,528.22
2023-05-12T01:24:39.653Z,528.24
2023-05-12T01:24:51.613Z,528.24
2023-05-12T01:25:02.600Z,528.23
2023-05-12T01:25:13.637Z,528.26
2023-05-12T01:25:25.620Z,528.26
2023-05-12T01:25:37.603Z,528.26
2023-05-12T01:25:49.606Z,528.27
2023-05-12T01:26:00.619Z,528.24
2023-05-12T01:26:11.612Z,528.25
2023-05-12T01:26:22.624Z,528.26
2023-05-12T01:26:34.618Z,528.26
2023-05-12T01:26:45.609Z,528.28
2023-05-12T01:26:56.589Z,528.29
2023-05-12T01:27:07.576Z,528.27
2023-05-12T01:27:18.587Z,528.31
2023-05-12T01:27:29.588Z,528.31
2023-05-12T01:27:40.584Z,528.29
2023-05-12T01:27:51.583Z,528.30
2023-05-12T01:28:02.608Z,528.30
2023-05-12T01:28:13.596Z,528.32
2023-05-12T01:28:24.591Z,528.30
2023-05-12T01:28:35.612Z,528.33
2023-05-12T01:28:46.606Z,528.33
2023-05-12T01:28:57.616Z,528.34
2023-05-12T01:29:08.614Z,528.35
2023-05-12T01:29:19.607Z,528.38
2023-05-12T01:29:30.621Z,528.41
2023-05-12T01:29:41.620Z,528.41
2023-05-12T01:29:52.620Z,528.41
2023-05-12T01:30:03.613Z,528.42
2023-05-12T01:30:14.617Z,528.44
2023-05-12T01:30:25.606Z,528.43
2023-05-12T01:30:36.593Z,528.42
2023-05-12T01:30:47.636Z,528.41
2023-05-12T01:30:59.633Z,528.40
2023-05-12T01:31:11.666Z,528.38
2023-05-12T01:31:22.617Z,528.38
2023-05-12T01:31:33.645Z,528.37
2023-05-12T01:31:44.725Z,528.35
2023-05-12T01:31:55.578Z,528.34
2023-05-12T01:32:06.599Z,528.31
2023-05-12T01:32:17.587Z,528.29
2023-05-12T01:32:28.607Z,528.27
2023-05-12T01:32:39.639Z,528.27
2023-05-12T01:32:50.628Z,528.24
2023-05-12T01:33:01.761Z,528.22
2023-05-12T01:33:13.608Z,528.20
2023-05-12T01:33:24.600Z,528.18
2023-05-12T01:33:35.613Z,528.19
2023-05-12T01:33:46.591Z,528.19
2023-05-12T01:33:57.605Z,528.18
2023-05-12T01:34:08.610Z,528.21
2023-05-12T01:34:19.596Z,528.18
2023-05-12T01:34:30.607Z,528.17
2023-05-12T01:34:41.592Z,528.16
2023-05-12T01:34:52.581Z,528.16
2023-05-12T01:35:03.597Z,528.16
2023-05-12T01:35:14.590Z,528.19
2023-05-12T01:35:25.595Z,528.20
2023-05-12T01:35:36.552Z,528.21
2023-05-12T01:35:47.638Z,528.22
2023-05-12T01:35:59.602Z,528.23
2023-05-12T01:36:10.599Z,528.23
2023-05-12T01:36:21.587Z,528.24
2023-05-12T01:36:32.589Z,528.23
2023-05-12T01:36:43.596Z,528.21
2023-05-12T01:36:54.592Z,528.18
2023-05-12T01:37:05.581Z,528.17
2023-05-12T01:37:16.574Z,528.17
2023-05-12T01:37:27.553Z,528.14
2023-05-12T01:37:38.641Z,528.11
2023-05-12T01:37:50.598Z,528.12
2023-05-12T01:38:01.589Z,528.10
2023-05-12T01:38:12.574Z,528.07
2023-05-12T01:38:23.573Z,528.07
2023-05-12T01:38:34.579Z,528.03
2023-05-12T01:38:45.576Z,528.04
2023-05-12T01:38:56.574Z,528.03
2023-05-12T01:39:07.567Z,528.02
2023-05-12T01:39:18.564Z,528.05
2023-05-12T01:39:29.599Z,528.06
2023-05-12T01:39:40.588Z,528.08
2023-05-12T01:39:51.567Z,528.07
2023-05-12T01:40:02.624Z,528.09
2023-05-12T01:40:13.611Z,528.10
2023-05-12T01:40:25.588Z,528.08
2023-05-12T01:40:36.583Z,528.07
2023-05-12T01:40:47.568Z,528.07
2023-05-12T01:40:58.593Z,528.09
2023-05-12T01:41:09.596Z,528.06
2023-05-12T01:41:20.589Z,528.07
2023-05-12T01:41:31.754Z,528.08
2023-05-12T01:41:43.624Z,528.10
2023-05-12T01:41:55.612Z,528.09
2023-05-12T01:42:06.615Z,528.11
2023-05-12T01:42:17.611Z,528.12
2023-05-12T01:42:28.634Z,528.14
2023-05-12T01:42:40.614Z,528.14
2023-05-12T01:42:51.602Z,528.14
2023-05-12T01:43:02.609Z,528.17
2023-05-12T01:43:13.598Z,528.18
2023-05-12T01:43:25.599Z,528.17
2023-05-12T01:43:36.595Z,528.21
2023-05-12T01:43:47.591Z,528.22
2023-05-12T01:43:58.568Z,528.22
2023-05-12T01:44:09.565Z,528.21
2023-05-12T01:44:20.541Z,528.17
2023-05-12T01:44:31.669Z,528.15
2023-05-12T01:44:43.625Z,528.14
2023-05-12T01:44:55.630Z,528.09
2023-05-12T01:45:06.556Z,528.06
2023-05-12T01:45:17.580Z,528.02
2023-05-12T01:45:28.572Z,528.00
2023-05-12T01:45:39.560Z,527.99
2023-05-12T01:45:50.663Z,527.97
2023-05-12T01:46:02.618Z,527.97
2023-05-12T01:46:14.636Z,527.95
2023-05-12T01:46:26.665Z,527.93
2023-05-12T01:46:37.626Z,527.96
2023-05-12T01:46:49.726Z,527.96
2023-05-12T01:47:00.608Z,527.96
2023-05-12T01:47:11.614Z,527.95
2023-05-12T01:47:22.697Z,527.97
2023-05-12T01:47:33.681Z,527.97
2023-05-12T01:47:45.639Z,527.98
2023-05-12T01:47:56.596Z,527.99
2023-05-12T01:48:08.590Z,528.00
2023-05-12T01:48:19.608Z,528.03
2023-05-12T01:48:30.593Z,528.03
2023-05-12T01:48:41.606Z,528.03
2023-05-12T01:48:52.614Z,528.03
2023-05-12T01:49:03.596Z,528.03
2023-05-12T01:49:14.616Z,528.00
2023-05-12T01:49:25.627Z,527.97
2023-05-12T01:49:37.592Z,527.92
2023-05-12T01:49:48.600Z,527.90
2023-05-12T01:49:59.594Z,527.82
2023-05-12T01:50:10.613Z,527.79
2023-05-12T01:50:21.843Z,527.74
2023-05-12T01:50:33.630Z,527.67
2023-05-12T01:50:45.593Z,527.60
2023-05-12T01:50:56.580Z,527.55
2023-05-12T01:51:07.573Z,527.51
2023-05-12T01:51:18.581Z,527.46
2023-05-12T01:51:29.623Z,527.43
2023-05-12T01:51:41.588Z,527.39
2023-05-12T01:51:52.581Z,527.36
2023-05-12T01:52:03.600Z,527.33
2023-05-12T01:52:14.589Z,527.33
2023-05-12T01:52:26.591Z,527.33
2023-05-12T01:52:37.586Z,527.35
2023-05-12T01:52:48.649Z,527.37
2023-05-12T01:53:00.615Z,527.40
2023-05-12T01:53:12.628Z,527.43
2023-05-12T01:53:23.553Z,527.49
2023-05-12T01:53:34.664Z,527.51
2023-05-12T01:53:46.627Z,527.56
2023-05-12T01:53:58.599Z,527.61
2023-05-12T01:54:09.602Z,527.63
2023-05-12T01:54:20.608Z,527.68
2023-05-12T01:54:31.607Z,527.72
2023-05-12T01:54:42.592Z,527.75
2023-05-12T01:54:53.594Z,527.75
2023-05-12T01:55:04.611Z,527.76
2023-05-12T01:55:15.610Z,527.77
2023-05-12T01:55:26.611Z,527.75
2023-05-12T01:55:37.667Z,527.76
2023-05-12T01:55:49.616Z,527.76
2023-05-12T01:56:00.605Z,527.78
2023-05-12T01:56:11.596Z,527.78
2023-05-12T01:56:22.601Z,527.78
2023-05-12T01:56:33.596Z,527.79
2023-05-12T01:56:44.614Z,527.77
2023-05-12T01:56:55.620Z,527.80
2023-05-12T01:57:06.607Z,527.78
2023-05-12T01:57:17.608Z,527.77
2023-05-12T01:57:28.587Z,527.77
2023-05-12T01:57:39.617Z,527.77
2023-05-12T01:57:51.618Z,527.71
2023-05-12T01:58:02.621Z,527.70
2023-05-12T01:58:13.614Z,527.65
2023-05-12T01:58:25.635Z,527.58
2023-05-12T01:58:37.627Z,527.53
2023-05-12T01:58:49.726Z,527.46
2023-05-12T01:59:01.674Z,527.37
2023-05-12T01:59:13.650Z,527.29
2023-05-12T01:59:24.616Z,527.24
2023-05-12T01:59:36.603Z,527.17
2023-05-12T01:59:47.610Z,527.12
2023-05-12T01:59:58.609Z,527.05
2023-05-12T02:00:09.628Z,527.00
2023-05-12T02:00:21.872Z,526.93
2023-05-12T02:00:32.619Z,526.88
2023-05-12T02:00:43.623Z,526.84
2023-05-12T02:00:55.592Z,526.81
2023-05-12T02:01:06.583Z,526.78
2023-05-12T02:01:17.591Z,526.76
2023-05-12T02:01:28.707Z,526.73
2023-05-12T02:01:40.659Z,526.74
2023-05-12T02:01:51.616Z,526.71
2023-05-12T02:02:02.646Z,526.73
2023-05-12T02:02:14.658Z,526.69
2023-05-12T02:02:25.676Z,526.73
2023-05-12T02:02:36.629Z,526.71
2023-05-12T02:02:47.735Z,526.72
2023-05-12T02:02:58.705Z,526.72
2023-05-12T02:03:10.688Z,526.74
2023-05-12T02:03:22.692Z,526.76
2023-05-12T02:03:34.702Z,526.75
2023-05-12T02:03:46.669Z,526.74
2023-05-12T02:03:58.667Z,526.77
2023-05-12T02:04:10.683Z,526.76
2023-05-12T02:04:22.621Z,526.74
2023-05-12T02:04:33.607Z,526.72
2023-05-12T02:04:44.594Z,526.70
2023-05-12T02:04:55.580Z,526.71
2023-05-12T02:05:06.563Z,526.72
2023-05-12T02:05:17.562Z,526.71
2023-05-12T02:05:28.574Z,526.72
2023-05-12T02:05:39.555Z,526.72
2023-05-12T02:05:50.548Z,526.71
2023-05-12T02:06:01.637Z,526.71
2023-05-12T02:06:13.600Z,526.73
2023-05-12T02:06:24.597Z,526.73
2023-05-12T02:06:35.588Z,526.71
2023-05-12T02:06:46.597Z,526.72
2023-05-12T02:06:57.590Z,526.69
2023-05-12T02:07:08.571Z,526.71
2023-05-12T02:07:19.565Z,526.70
2023-05-12T02:07:30.554Z,526.69
2023-05-12T02:07:41.637Z,526.71
2023-05-12T02:07:53.612Z,526.68
2023-05-12T02:08:04.610Z,526.66
2023-05-12T02:08:15.597Z,526.67
2023-05-12T02:08:26.641Z,526.69
2023-05-12T02:08:37.666Z,526.68
2023-05-12T02:08:49.615Z,526.72
2023-05-12T02:09:01.572Z,526.73
2023-05-12T02:09:12.557Z,526.70
2023-05-12T02:09:23.550Z,526.73
2023-05-12T02:09:34.644Z,526.72
2023-05-12T02:09:46.591Z,526.73
2023-05-12T02:09:57.592Z,526.72
2023-05-12T02:10:08.587Z,526.72
2023-05-12T02:10:19.825Z,526.73
2023-05-12T02:10:31.588Z,526.70
2023-05-12T02:10:42.593Z,526.69
2023-05-12T02:10:53.587Z,526.70
2023-05-12T02:11:04.578Z,526.69
2023-05-12T02:11:15.583Z,526.68
2023-05-12T02:11:26.577Z,526.68
2023-05-12T02:11:37.583Z,526.66
2023-05-12T02:11:48.575Z,526.66
2023-05-12T02:11:59.570Z,526.64
2023-05-12T02:12:10.575Z,526.61
2023-05-12T02:12:21.566Z,526.63
2023-05-12T02:12:32.565Z,526.62
2023-05-12T02:12:43.552Z,526.62
2023-05-12T02:12:54.558Z,526.65
2023-05-12T02:13:05.555Z,526.68
2023-05-12T02:13:16.636Z,526.72
2023-05-12T02:13:28.592Z,526.72
2023-05-12T02:13:39.590Z,526.77
2023-05-12T02:13:51.589Z,526.77
2023-05-12T02:14:02.571Z,526.79
2023-05-12T02:14:13.563Z,526.84
2023-05-12T02:14:24.560Z,526.87
2023-05-12T02:14:35.578Z,526.87
2023-05-12T02:14:46.574Z,526.89
2023-05-12T02:14:57.563Z,526.91
2023-05-12T02:15:08.558Z,526.93
2023-05-12T02:15:19.647Z,526.95
2023-05-12T02:15:31.609Z,526.96
2023-05-12T02:15:42.617Z,526.99
2023-05-12T02:15:53.630Z,527.01
2023-05-12T02:16:05.653Z,527.03
2023-05-12T02:16:16.627Z,527.05
2023-05-12T02:16:28.708Z,527.10
2023-05-12T02:16:39.664Z,527.11
2023-05-12T02:16:50.938Z,527.11
2023-05-12T02:17:02.599Z,527.14
2023-05-12T02:17:13.586Z,527.17
2023-05-12T02:17:24.633Z,527.19
2023-05-12T02:17:36.638Z,527.22
2023-05-12T02:17:48.648Z,527.24
2023-05-12T02:18:00.710Z,527.28
2023-05-12T02:18:12.598Z,527.29
2023-05-12T02:18:23.615Z,527.31
2023-05-12T02:18:35.646Z,527.32
2023-05-12T02:18:46.649Z,527.32
2023-05-12T02:18:58.670Z,527.35
2023-05-12T02:19:09.648Z,527.35
2023-05-12T02:19:21.584Z,527.35
2023-05-12T02:19:32.578Z,527.34
2023-05-12T02:19:43.570Z,527.36
2023-05-12T02:19:54.564Z,527.32
2023-05-12T02:20:05.545Z,527.31